createdAt,value
2019-03-23T00:01:59.685Z,14.37
2019-03-23T00:04:29.326Z,23.77
2019-03-23T00:06:59.067Z,18.30
2019-03-23T00:09:29.119Z,17.13
2019-03-23T00:11:58.928Z,14.40
2019-03-23T00:14:29.230Z,12.03
2019-03-23T00:16:59.000Z,11.70
2019-03-23T00:19:29.545Z,14.20
2019-03-23T00:22:00.010Z,15.60
2019-03-23T00:24:30.492Z,13.90
2019-03-23T00:27:00.247Z,13.90
2019-03-23T00:29:29.952Z,11.40
2019-03-23T00:31:59.624Z,15.10
2019-03-23T00:34:29.753Z,12.20
2019-03-23T00:36:59.551Z,13.00
2019-03-23T00:39:29.220Z,14.80
2019-03-23T00:41:58.855Z,12.00
2019-03-23T00:44:28.850Z,11.30
2019-03-23T00:46:58.586Z,13.23
2019-03-23T00:49:28.367Z,12.20
2019-03-23T00:51:58.086Z,10.43
2019-03-23T00:54:27.872Z,10.83
2019-03-23T00:56:57.615Z,14.00
2019-03-23T00:59:27.375Z,12.97
2019-03-23T01:01:57.021Z,12.90
2019-03-23T01:04:26.746Z,13.83
2019-03-23T01:06:56.423Z,15.53
2019-03-23T01:09:26.162Z,12.13
2019-03-23T01:11:56.091Z,12.67
2019-03-23T01:14:25.892Z,11.77
2019-03-23T01:16:55.611Z,16.93
2019-03-23T01:19:25.302Z,10.40
2019-03-23T01:21:55.016Z,13.13
2019-03-23T01:24:24.737Z,14.33
2019-03-23T01:26:54.502Z,11.10
2019-03-23T01:29:24.538Z,14.10
2019-03-23T01:31:55.099Z,17.40
2019-03-23T01:34:25.195Z,12.30
2019-03-23T01:37:02.480Z,19.07
2019-03-23T01:39:26.419Z,11.73
2019-03-23T01:41:56.094Z,17.50
2019-03-23T01:44:25.774Z,12.33
2019-03-23T01:46:55.546Z,11.83
2019-03-23T01:49:25.241Z,14.00
2019-03-23T01:51:54.969Z,16.70
2019-03-23T01:54:24.705Z,12.20
2019-03-23T01:56:55.227Z,14.47
2019-03-23T01:59:24.927Z,12.33
2019-03-23T02:01:54.865Z,14.23
2019-03-23T02:04:24.832Z,11.47
2019-03-23T02:06:54.577Z,14.80
2019-03-23T02:09:24.295Z,12.93
2019-03-23T02:11:54.816Z,14.97
2019-03-23T02:14:24.471Z,14.80
2019-03-23T02:16:54.439Z,16.20
2019-03-23T02:19:24.190Z,12.27
2019-03-23T02:21:53.867Z,15.50
2019-03-23T02:24:23.635Z,16.80
2019-03-23T02:26:53.362Z,13.73
2019-03-23T02:29:23.114Z,19.50
2019-03-23T02:31:52.809Z,13.70
2019-03-23T02:34:22.608Z,12.80
2019-03-23T02:36:52.264Z,17.37
2019-03-23T02:39:22.174Z,11.87
2019-03-23T02:41:51.861Z,11.07
2019-03-23T02:44:21.552Z,13.90
2019-03-23T02:46:51.333Z,12.50
2019-03-23T02:49:21.273Z,11.90
2019-03-23T02:51:51.000Z,12.10
2019-03-23T02:54:20.836Z,14.27
2019-03-23T02:56:50.519Z,18.50
2019-03-23T02:59:20.203Z,12.53
2019-03-23T03:01:50.232Z,13.53
2019-03-23T03:04:20.027Z,13.40
2019-03-23T03:06:49.977Z,16.57
2019-03-23T03:09:19.679Z,12.90
2019-03-23T03:11:49.420Z,14.27
2019-03-23T03:14:19.204Z,13.20
2019-03-23T03:16:48.940Z,13.63
2019-03-23T03:19:18.645Z,13.97
2019-03-23T03:21:48.377Z,12.10
2019-03-23T03:24:18.179Z,12.43
2019-03-23T03:26:47.875Z,19.80
2019-03-23T03:29:17.932Z,13.20
2019-03-23T03:31:47.882Z,11.77
2019-03-23T03:34:17.595Z,11.10
2019-03-23T03:36:47.332Z,12.13
2019-03-23T03:39:17.017Z,15.70
2019-03-23T03:41:46.968Z,10.53
2019-03-23T03:44:17.555Z,16.80
2019-03-23T03:46:47.264Z,11.57
2019-03-23T03:49:16.977Z,12.40
2019-03-23T03:51:46.690Z,15.13
2019-03-23T03:54:16.412Z,14.90
2019-03-23T03:56:46.135Z,15.80
2019-03-23T03:59:15.847Z,15.63
2019-03-23T04:01:45.648Z,14.97
2019-03-23T04:04:15.631Z,21.70
2019-03-23T04:06:45.342Z,16.20
2019-03-23T04:09:15.017Z,18.10
2019-03-23T04:11:44.679Z,18.53
2019-03-23T04:14:14.455Z,19.73
2019-03-23T04:16:44.133Z,18.57
2019-03-23T04:19:14.116Z,19.27
2019-03-23T04:21:43.870Z,15.03
2019-03-23T04:24:13.572Z,18.03
2019-03-23T04:26:43.240Z,18.37
2019-03-23T04:29:12.932Z,17.93
2019-03-23T04:31:42.702Z,18.67
2019-03-23T04:34:12.675Z,20.00
2019-03-23T04:36:42.339Z,22.67
2019-03-23T04:39:12.291Z,20.27
2019-03-23T04:41:41.966Z,17.17
2019-03-23T04:44:11.747Z,13.87
2019-03-23T04:46:41.431Z,22.43
2019-03-23T04:49:11.207Z,19.30
2019-03-23T04:51:40.873Z,17.30
2019-03-23T04:54:10.567Z,17.77
2019-03-23T04:56:40.315Z,18.43
2019-03-23T04:59:09.991Z,19.63
2019-03-23T05:01:39.675Z,20.53
2019-03-23T05:04:09.411Z,14.80
2019-03-23T05:06:39.095Z,16.50
2019-03-23T05:09:09.433Z,17.37
2019-03-23T05:11:39.448Z,19.90
2019-03-23T05:14:09.162Z,18.83
2019-03-23T05:16:39.099Z,25.33
2019-03-23T05:19:08.929Z,17.00
2019-03-23T05:21:38.599Z,21.80
2019-03-23T05:24:08.361Z,20.13
2019-03-23T05:26:38.044Z,19.10
2019-03-23T05:29:07.827Z,17.70
2019-03-23T05:31:37.611Z,26.87
2019-03-23T05:34:07.363Z,22.80
2019-03-23T05:36:37.039Z,21.33
2019-03-23T05:39:07.371Z,19.40
2019-03-23T05:41:37.679Z,19.90
2019-03-23T05:44:07.363Z,19.37
2019-03-23T05:46:37.027Z,22.17
2019-03-23T05:49:06.983Z,18.20
2019-03-23T05:51:36.899Z,22.00
2019-03-23T05:54:06.828Z,20.60
2019-03-23T05:56:36.477Z,21.03
2019-03-23T05:59:06.159Z,15.90
2019-03-23T06:01:35.822Z,20.70
2019-03-23T06:04:05.746Z,19.07
2019-03-23T06:06:35.411Z,23.90
2019-03-23T06:09:07.087Z,23.77
2019-03-23T06:11:37.022Z,25.40
2019-03-23T06:14:07.506Z,18.87
2019-03-23T06:16:37.237Z,19.50
2019-03-23T06:19:06.892Z,23.53
2019-03-23T06:21:36.862Z,20.03
2019-03-23T06:24:06.594Z,22.73
2019-03-23T06:26:36.281Z,22.10
2019-03-23T06:29:05.938Z,21.27
2019-03-23T06:31:35.639Z,22.50
2019-03-23T06:34:05.358Z,19.17
2019-03-23T06:36:35.149Z,18.93
2019-03-23T06:39:06.960Z,23.97
2019-03-23T06:41:36.651Z,23.93
2019-03-23T06:44:06.314Z,16.83
2019-03-23T06:46:35.995Z,19.60
2019-03-23T06:49:05.687Z,20.87
2019-03-23T06:51:35.369Z,20.23
2019-03-23T06:54:05.054Z,21.83
2019-03-23T06:56:34.737Z,25.80
2019-03-23T06:59:04.474Z,20.23
2019-03-23T07:01:34.171Z,23.13
2019-03-23T07:04:04.116Z,20.87
2019-03-23T07:06:33.811Z,23.17
2019-03-23T07:09:03.578Z,23.43
2019-03-23T07:11:33.269Z,18.67
2019-03-23T07:14:03.010Z,24.67
2019-03-23T07:16:32.971Z,23.47
2019-03-23T07:19:02.980Z,24.13
2019-03-23T07:21:32.662Z,20.60
2019-03-23T07:24:02.623Z,25.27
2019-03-23T07:26:32.322Z,28.37
2019-03-23T07:29:02.058Z,28.30
2019-03-23T07:31:32.031Z,25.77
2019-03-23T07:34:01.711Z,26.40
2019-03-23T07:36:31.420Z,24.97
2019-03-23T07:39:01.195Z,22.57
2019-03-23T07:41:30.888Z,20.63
2019-03-23T07:44:00.559Z,22.23
2019-03-23T07:46:30.252Z,26.50
2019-03-23T07:48:59.950Z,24.30
2019-03-23T07:51:29.655Z,25.77
2019-03-23T07:53:59.331Z,25.93
2019-03-23T07:56:29.013Z,21.63
2019-03-23T07:58:58.690Z,24.47
2019-03-23T08:01:28.726Z,25.40
2019-03-23T08:03:58.400Z,25.00
2019-03-23T08:06:28.082Z,22.40
2019-03-23T08:08:57.762Z,28.93
2019-03-23T08:11:27.722Z,23.17
2019-03-23T08:13:57.747Z,23.00
2019-03-23T08:16:27.427Z,24.03
2019-03-23T08:18:57.197Z,23.43
2019-03-23T08:21:26.909Z,26.23
2019-03-23T08:23:56.671Z,25.07
2019-03-23T08:26:26.427Z,23.13
2019-03-23T08:28:56.943Z,20.43
2019-03-23T08:31:26.861Z,22.97
2019-03-23T08:33:56.538Z,21.97
2019-03-23T08:36:26.314Z,23.57
2019-03-23T08:38:55.975Z,24.23
2019-03-23T08:41:25.755Z,27.67
2019-03-23T08:43:55.435Z,25.77
2019-03-23T08:46:25.811Z,25.87
2019-03-23T08:48:55.559Z,27.53
2019-03-23T08:51:25.247Z,28.23
2019-03-23T08:53:54.923Z,25.00
2019-03-23T08:56:24.888Z,25.53
2019-03-23T08:58:54.551Z,27.80
2019-03-23T09:01:24.326Z,28.00
2019-03-23T09:03:54.462Z,29.23
2019-03-23T09:06:24.185Z,21.57
2019-03-23T09:08:53.847Z,23.40
2019-03-23T09:11:23.533Z,22.30
2019-03-23T09:13:53.191Z,26.63
2019-03-23T09:16:22.889Z,27.67
2019-03-23T09:18:52.604Z,26.73
2019-03-23T09:21:22.334Z,25.80
2019-03-23T09:23:52.007Z,24.20
2019-03-23T09:26:21.794Z,23.13
2019-03-23T09:28:51.463Z,27.00
2019-03-23T09:31:21.167Z,31.47
2019-03-23T09:33:51.419Z,28.93
2019-03-23T09:36:22.933Z,27.87
2019-03-23T09:38:52.479Z,26.70
2019-03-23T09:41:22.154Z,26.83
2019-03-23T09:43:51.843Z,28.50
2019-03-23T09:46:21.615Z,26.63
2019-03-23T09:48:51.675Z,30.80
2019-03-23T09:51:21.442Z,25.40
2019-03-23T09:53:51.142Z,40.97
2019-03-23T09:56:20.842Z,33.57
2019-03-23T09:58:50.543Z,52.00
2019-03-23T10:01:20.214Z,30.53
2019-03-23T10:03:49.907Z,26.27
2019-03-23T10:06:19.611Z,29.33
2019-03-23T10:08:49.692Z,29.83
2019-03-23T10:11:19.716Z,27.87
2019-03-23T10:13:49.420Z,28.97
2019-03-23T10:16:19.171Z,33.00
2019-03-23T10:18:48.856Z,33.07
2019-03-23T10:21:18.544Z,29.13
2019-03-23T10:23:48.468Z,33.50
2019-03-23T10:26:18.149Z,31.50
2019-03-23T10:28:47.851Z,27.70
2019-03-23T10:31:17.903Z,27.97
2019-03-23T10:33:47.667Z,50.67
2019-03-23T10:36:17.379Z,69.40
2019-03-23T10:38:47.084Z,32.10
2019-03-23T10:41:17.079Z,32.20
2019-03-23T10:43:46.843Z,29.77
2019-03-23T10:46:16.546Z,28.13
2019-03-23T10:48:46.224Z,29.63
2019-03-23T10:51:15.943Z,27.93
2019-03-23T10:53:45.901Z,28.27
2019-03-23T10:56:15.578Z,35.53
2019-03-23T10:58:45.355Z,36.90
2019-03-23T11:01:15.147Z,40.03
2019-03-23T11:03:44.869Z,39.97
2019-03-23T11:06:14.649Z,33.40
2019-03-23T11:08:44.345Z,31.30
2019-03-23T11:11:14.031Z,30.50
2019-03-23T11:13:43.859Z,28.87
2019-03-23T11:16:13.731Z,28.83
2019-03-23T11:18:43.427Z,53.33
2019-03-23T11:21:13.130Z,56.63
2019-03-23T11:23:42.824Z,32.30
2019-03-23T11:26:12.522Z,41.37
2019-03-23T11:28:42.329Z,42.67
2019-03-23T11:31:12.023Z,35.07
2019-03-23T11:33:41.719Z,31.80
2019-03-23T11:36:11.643Z,34.73
2019-03-23T11:38:41.330Z,49.57
2019-03-23T11:41:11.019Z,32.20
2019-03-23T11:43:41.003Z,34.57
2019-03-23T11:46:10.709Z,35.33
2019-03-23T11:48:40.684Z,37.23
2019-03-23T11:51:10.458Z,44.80
2019-03-23T11:53:40.173Z,40.53
2019-03-23T11:56:09.871Z,46.77
2019-03-23T11:58:39.692Z,40.57
2019-03-23T12:01:09.440Z,40.40
2019-03-23T12:03:39.426Z,41.07
2019-03-23T12:06:09.223Z,40.03
2019-03-23T12:08:38.995Z,45.07
2019-03-23T12:11:08.852Z,44.93
2019-03-23T12:13:38.630Z,42.67
2019-03-23T12:16:08.334Z,40.07
2019-03-23T12:18:38.017Z,53.53
2019-03-23T12:21:07.746Z,47.87
2019-03-23T12:23:37.422Z,51.33
2019-03-23T12:26:07.123Z,49.13
2019-03-23T12:28:36.869Z,42.73
2019-03-23T12:31:06.560Z,48.93
2019-03-23T12:33:36.342Z,46.07
2019-03-23T12:36:06.047Z,103.77
2019-03-23T12:38:35.802Z,57.73
2019-03-23T12:41:14.355Z,53.43
2019-03-23T12:43:37.296Z,49.90
2019-03-23T12:46:06.990Z,42.97
2019-03-23T12:48:37.346Z,51.90
2019-03-23T12:51:07.069Z,75.13
2019-03-23T12:53:36.778Z,67.67
2019-03-23T12:56:06.446Z,39.30
2019-03-23T12:58:36.365Z,51.57
2019-03-23T13:01:06.343Z,52.40
2019-03-23T13:03:36.631Z,44.80
2019-03-23T13:06:06.338Z,45.50
2019-03-23T13:08:36.030Z,45.40
2019-03-23T13:11:05.719Z,38.13
2019-03-23T13:13:35.457Z,53.33
2019-03-23T13:16:05.138Z,48.00
2019-03-23T13:18:34.902Z,47.50
2019-03-23T13:21:04.664Z,57.77
2019-03-23T13:23:34.653Z,39.90
2019-03-23T13:26:04.359Z,53.50
2019-03-23T13:28:34.014Z,44.83
2019-03-23T13:31:03.711Z,50.73
2019-03-23T13:33:33.411Z,46.20
2019-03-23T13:36:03.111Z,50.30
2019-03-23T13:38:33.143Z,51.10
2019-03-23T13:41:02.923Z,44.10
2019-03-23T13:43:32.995Z,58.97
2019-03-23T13:46:02.762Z,50.60
2019-03-23T13:48:33.238Z,46.20
2019-03-23T13:51:02.953Z,40.73
2019-03-23T13:53:32.663Z,38.77
2019-03-23T13:56:02.705Z,38.30
2019-03-23T13:58:32.398Z,41.00
2019-03-23T14:01:02.078Z,40.70
2019-03-23T14:03:31.770Z,41.33
2019-03-23T14:06:02.258Z,54.70
2019-03-23T14:08:32.014Z,51.07
2019-03-23T14:11:01.683Z,48.27
2019-03-23T14:13:31.447Z,48.17
2019-03-23T14:16:02.016Z,42.90
2019-03-23T14:18:31.701Z,45.00
2019-03-23T14:21:02.198Z,39.43
2019-03-23T14:23:31.967Z,42.80
2019-03-23T14:26:01.684Z,40.33
2019-03-23T14:28:31.410Z,46.90
2019-03-23T14:31:01.198Z,65.37
2019-03-23T14:33:30.907Z,60.17
2019-03-23T14:36:00.895Z,60.20
2019-03-23T14:38:30.599Z,57.10
2019-03-23T14:41:00.387Z,59.43
2019-03-23T14:43:30.159Z,54.20
2019-03-23T14:45:59.859Z,52.97
2019-03-23T14:48:29.564Z,59.67
2019-03-23T14:50:59.563Z,53.80
2019-03-23T14:53:29.254Z,61.47
2019-03-23T14:55:58.953Z,60.20
2019-03-23T14:58:28.618Z,59.97
2019-03-23T15:00:58.315Z,69.50
2019-03-23T15:03:28.267Z,62.30
2019-03-23T15:05:58.287Z,65.97
2019-03-23T15:08:28.203Z,67.73
2019-03-23T15:10:57.978Z,65.80
2019-03-23T15:13:27.665Z,74.00
2019-03-23T15:15:57.379Z,71.50
2019-03-23T15:18:27.070Z,69.73
2019-03-23T15:20:56.762Z,72.17
2019-03-23T15:23:26.454Z,67.27
2019-03-23T15:25:56.223Z,79.40
2019-03-23T15:28:25.894Z,77.33
2019-03-23T15:30:55.668Z,73.50
2019-03-23T15:33:25.392Z,78.27
2019-03-23T15:35:55.478Z,90.87
2019-03-23T15:38:25.195Z,79.47
2019-03-23T15:40:54.861Z,79.23
2019-03-23T15:43:24.553Z,74.67
2019-03-23T15:45:54.342Z,76.83
2019-03-23T15:48:24.091Z,78.87
2019-03-23T15:50:53.792Z,87.27
2019-03-23T15:53:23.499Z,85.87
2019-03-23T15:55:53.610Z,81.50
2019-03-23T15:58:23.307Z,77.57
2019-03-23T16:00:52.992Z,90.57
2019-03-23T16:03:22.674Z,82.97
2019-03-23T16:05:53.204Z,82.63
2019-03-23T16:08:22.935Z,94.77
2019-03-23T16:10:52.678Z,89.80
2019-03-23T16:13:22.426Z,100.80
2019-03-23T16:15:52.153Z,86.70
2019-03-23T16:18:21.883Z,79.93
2019-03-23T16:20:51.626Z,85.30
2019-03-23T16:23:21.342Z,93.40
2019-03-23T16:25:51.087Z,91.37
2019-03-23T16:28:20.787Z,94.83
2019-03-23T16:30:50.452Z,86.53
2019-03-23T16:33:20.487Z,83.43
2019-03-23T16:35:50.142Z,85.57
2019-03-23T16:38:20.091Z,82.47
2019-03-23T16:40:50.075Z,88.47
2019-03-23T16:43:19.820Z,101.20
2019-03-23T16:45:49.539Z,91.93
2019-03-23T16:48:19.206Z,76.40
2019-03-23T16:50:48.912Z,94.53
2019-03-23T16:53:20.285Z,90.00
2019-03-23T16:55:50.059Z,78.23
2019-03-23T16:58:19.802Z,88.20
2019-03-23T17:00:50.046Z,86.87
2019-03-23T17:03:19.714Z,91.17
2019-03-23T17:05:49.395Z,91.53
2019-03-23T17:08:19.090Z,78.27
2019-03-23T17:10:48.791Z,86.30
2019-03-23T17:13:18.811Z,80.83
2019-03-23T17:15:48.561Z,87.47
2019-03-23T17:18:18.328Z,87.40
2019-03-23T17:20:48.020Z,87.07
2019-03-23T17:23:17.699Z,75.80
2019-03-23T17:25:47.450Z,77.53
2019-03-23T17:28:17.126Z,70.37
2019-03-23T17:30:47.626Z,87.37
2019-03-23T17:33:17.687Z,84.10
2019-03-23T17:35:47.376Z,86.97
2019-03-23T17:38:17.091Z,84.03
2019-03-23T17:40:46.815Z,93.60
2019-03-23T17:43:16.506Z,87.40
2019-03-23T17:45:46.458Z,94.30
2019-03-23T17:48:16.739Z,94.50
2019-03-23T17:50:46.438Z,94.63
2019-03-23T17:53:16.099Z,90.47
2019-03-23T17:55:46.059Z,107.80
2019-03-23T17:58:15.742Z,98.23
2019-03-23T18:00:45.607Z,95.10
2019-03-23T18:03:15.474Z,108.67
2019-03-23T18:05:46.050Z,97.33
2019-03-23T18:08:15.745Z,102.67
2019-03-23T18:10:45.419Z,101.13
2019-03-23T18:13:16.738Z,96.83
2019-03-23T18:15:46.911Z,104.17
2019-03-23T18:18:16.605Z,110.97
2019-03-23T18:20:46.642Z,103.83
2019-03-23T18:23:16.335Z,101.60
2019-03-23T18:25:46.051Z,108.23
2019-03-23T18:28:15.795Z,95.63
2019-03-23T18:30:45.891Z,97.33
2019-03-23T18:33:15.902Z,105.30
2019-03-23T18:35:45.630Z,95.70
2019-03-23T18:38:15.379Z,111.70
2019-03-23T18:40:45.083Z,107.30
2019-03-23T18:43:14.826Z,101.07
2019-03-23T18:45:44.819Z,90.20
2019-03-23T18:48:14.551Z,79.20
2019-03-23T18:50:44.230Z,84.00
2019-03-23T18:53:13.886Z,74.37
2019-03-23T18:55:43.873Z,76.20
2019-03-23T18:58:13.603Z,85.00
2019-03-23T19:00:44.575Z,66.47
2019-03-23T19:03:14.415Z,64.60
2019-03-23T19:05:44.490Z,67.57
2019-03-23T19:08:14.164Z,68.60
2019-03-23T19:10:43.910Z,57.33
2019-03-23T19:13:13.747Z,65.00
2019-03-23T19:15:43.732Z,57.70
2019-03-23T19:18:13.394Z,61.67
2019-03-23T19:20:43.123Z,64.67
2019-03-23T19:23:12.806Z,60.43
2019-03-23T19:25:42.474Z,61.80
2019-03-23T19:28:12.393Z,61.17
2019-03-23T19:30:42.058Z,53.53
2019-03-23T19:33:11.756Z,57.90
2019-03-23T19:35:41.451Z,56.10
2019-03-23T19:38:11.228Z,57.43
2019-03-23T19:40:40.932Z,50.60
2019-03-23T19:43:10.618Z,53.83
2019-03-23T19:45:40.338Z,55.20
2019-03-23T19:48:10.472Z,51.97
2019-03-23T19:50:40.157Z,46.37
2019-03-23T19:53:09.860Z,48.57
2019-03-23T19:55:39.524Z,50.07
2019-03-23T19:58:09.218Z,52.93
2019-03-23T20:00:39.001Z,52.50
2019-03-23T20:03:09.078Z,48.10
2019-03-23T20:05:38.805Z,47.50
2019-03-23T20:08:08.934Z,46.00
2019-03-23T20:10:38.689Z,46.20
2019-03-23T20:13:08.398Z,49.53
2019-03-23T20:15:38.191Z,48.00
2019-03-23T20:18:07.857Z,44.30
2019-03-23T20:20:37.541Z,50.23
2019-03-23T20:23:07.238Z,46.50
2019-03-23T20:25:36.994Z,43.37
2019-03-23T20:28:06.759Z,48.07
2019-03-23T20:30:37.088Z,44.10
2019-03-23T20:33:06.913Z,47.40
2019-03-23T20:35:36.642Z,46.67
2019-03-23T20:38:06.330Z,43.80
2019-03-23T20:40:36.379Z,44.13
2019-03-23T20:43:06.167Z,45.20
2019-03-23T20:45:36.943Z,43.57
2019-03-23T20:48:06.638Z,43.90
2019-03-23T20:50:36.410Z,39.73
2019-03-23T20:53:06.923Z,44.97
2019-03-23T20:55:36.595Z,46.50
2019-03-23T20:58:06.299Z,46.53
2019-03-23T21:00:36.321Z,46.83
2019-03-23T21:03:06.032Z,51.10
2019-03-23T21:05:35.803Z,45.67
2019-03-23T21:08:06.035Z,43.47
2019-03-23T21:10:35.733Z,46.23
2019-03-23T21:13:05.398Z,47.30
2019-03-23T21:15:35.359Z,45.87
2019-03-23T21:18:05.082Z,47.63
2019-03-23T21:20:34.783Z,54.53
2019-03-23T21:23:04.475Z,45.37
2019-03-23T21:25:34.443Z,44.57
2019-03-23T21:28:04.471Z,50.37
2019-03-23T21:30:34.154Z,44.33
2019-03-23T21:33:03.929Z,45.83
2019-03-23T21:35:33.608Z,46.87
2019-03-23T21:38:03.287Z,44.40
2019-03-23T21:40:34.929Z,41.90
2019-03-23T21:43:04.470Z,47.70
2019-03-23T21:45:34.143Z,45.57
2019-03-23T21:48:03.868Z,50.57
2019-03-23T21:50:33.539Z,50.63
2019-03-23T21:53:03.223Z,46.97
2019-03-23T21:55:33.810Z,49.97
2019-03-23T21:58:03.578Z,52.60
2019-03-23T22:00:36.687Z,46.43
2019-03-23T22:03:06.365Z,47.50
2019-03-23T22:05:36.060Z,44.67
2019-03-23T22:08:05.952Z,48.83
2019-03-23T22:10:35.637Z,52.80
2019-03-23T22:13:05.408Z,50.43
2019-03-23T22:15:35.326Z,52.27
2019-03-23T22:18:05.000Z,48.73
2019-03-23T22:20:35.031Z,52.17
2019-03-23T22:23:04.700Z,51.17
2019-03-23T22:25:34.934Z,48.13
2019-03-23T22:28:04.635Z,50.27
2019-03-23T22:30:34.307Z,50.10
2019-03-23T22:33:04.032Z,52.20
2019-03-23T22:35:33.723Z,52.73
2019-03-23T22:38:03.658Z,52.90
2019-03-23T22:40:33.323Z,49.80
2019-03-23T22:43:02.998Z,52.10
2019-03-23T22:45:32.694Z,54.80
2019-03-23T22:48:02.410Z,53.97
2019-03-23T22:50:32.378Z,53.13
2019-03-23T22:53:02.206Z,60.20
2019-03-23T22:55:32.179Z,52.93
2019-03-23T22:58:01.883Z,50.20
2019-03-23T23:00:45.134Z,51.77
2019-03-23T23:03:14.930Z,56.50
2019-03-23T23:05:45.372Z,55.30
2019-03-23T23:08:15.308Z,54.83
2019-03-23T23:10:44.975Z,59.97
2019-03-23T23:13:14.954Z,49.93
2019-03-23T23:15:44.630Z,53.63
2019-03-23T23:18:14.307Z,52.80
2019-03-23T23:20:44.258Z,57.53
2019-03-23T23:23:13.945Z,52.73
2019-03-23T23:25:43.883Z,56.03
2019-03-23T23:28:13.545Z,56.87
2019-03-23T23:30:43.210Z,53.60
2019-03-23T23:33:12.902Z,53.60
2019-03-23T23:35:42.559Z,52.90
2019-03-23T23:38:12.251Z,50.10
2019-03-23T23:40:42.013Z,60.20
2019-03-23T23:43:11.690Z,51.77
2019-03-23T23:45:41.623Z,57.67
2019-03-23T23:48:11.337Z,55.00
2019-03-23T23:50:40.992Z,64.23
2019-03-23T23:53:10.759Z,51.93
2019-03-23T23:55:40.503Z,54.73
2019-03-23T23:58:10.649Z,53.97
